createdAt,value
2018-09-17T00:01:54.371Z,66.60
2018-09-17T00:05:57.688Z,66.00
2018-09-17T00:10:01.027Z,66.40
2018-09-17T00:14:04.384Z,66.00
2018-09-17T00:18:07.895Z,66.40
2018-09-17T00:22:11.211Z,66.00
2018-09-17T00:26:14.694Z,65.70
2018-09-17T00:30:18.008Z,65.90
2018-09-17T00:34:21.913Z,66.20
2018-09-17T00:38:25.656Z,66.30
2018-09-17T00:42:28.968Z,66.90
2018-09-17T00:46:32.315Z,67.00
2018-09-17T00:50:35.918Z,67.40
2018-09-17T00:54:39.243Z,66.80
2018-09-17T00:58:42.552Z,66.30
2018-09-17T01:02:45.895Z,67.20
2018-09-17T01:06:49.315Z,67.10
2018-09-17T01:10:52.875Z,67.30
2018-09-17T01:14:56.186Z,66.90
2018-09-17T01:18:59.489Z,67.20
2018-09-17T01:23:02.813Z,67.40
2018-09-17T01:27:06.154Z,67.20
2018-09-17T01:31:09.523Z,67.10
2018-09-17T01:35:12.843Z,67.30
2018-09-17T01:39:16.186Z,66.90
2018-09-17T01:43:19.736Z,68.80
2018-09-17T01:47:23.078Z,67.50
2018-09-17T01:51:26.427Z,67.40
2018-09-17T01:55:29.779Z,69.00
2018-09-17T01:59:33.121Z,68.60
2018-09-17T02:03:36.495Z,66.90
2018-09-17T02:07:39.840Z,67.40
2018-09-17T02:11:43.254Z,69.50
2018-09-17T02:15:46.593Z,68.00
2018-09-17T02:19:49.918Z,67.60
2018-09-17T02:23:53.230Z,71.50
2018-09-17T02:27:56.563Z,68.60
2018-09-17T02:31:59.912Z,69.80
2018-09-17T02:36:03.284Z,67.50
2018-09-17T02:40:10.847Z,68.40
2018-09-17T02:44:14.266Z,68.20
2018-09-17T02:48:17.629Z,68.60
2018-09-17T02:52:20.962Z,67.70
2018-09-17T02:56:24.294Z,68.80
2018-09-17T03:00:27.599Z,69.10
2018-09-17T03:04:30.935Z,67.90
2018-09-17T03:08:34.354Z,68.40
2018-09-17T03:12:37.683Z,68.70
2018-09-17T03:16:52.351Z,69.00
2018-09-17T03:20:55.727Z,68.60
2018-09-17T03:24:59.064Z,69.00
2018-09-17T03:29:02.424Z,69.20
2018-09-17T03:33:05.765Z,69.20
2018-09-17T03:37:09.130Z,69.70
2018-09-17T03:41:13.294Z,69.00
2018-09-17T03:45:16.624Z,70.20
2018-09-17T03:49:19.966Z,68.20
2018-09-17T03:53:23.325Z,67.70
2018-09-17T03:57:26.668Z,67.60
2018-09-17T04:01:29.968Z,69.30
2018-09-17T04:05:33.493Z,71.00
2018-09-17T04:09:36.875Z,69.50
2018-09-17T04:13:40.219Z,69.20
2018-09-17T04:17:43.561Z,69.70
2018-09-17T04:21:46.890Z,70.70
2018-09-17T04:25:50.229Z,71.70
2018-09-17T04:29:53.575Z,70.10
2018-09-17T04:33:56.911Z,69.10
2018-09-17T04:38:00.244Z,69.80
2018-09-17T04:42:03.828Z,69.30
2018-09-17T04:46:07.159Z,70.30
2018-09-17T04:50:10.840Z,69.00
2018-09-17T04:54:14.216Z,70.50
2018-09-17T04:58:17.576Z,69.00
2018-09-17T05:02:20.935Z,70.40
2018-09-17T05:06:24.275Z,69.00
2018-09-17T05:10:27.656Z,68.00
2018-09-17T05:14:31.007Z,69.60
2018-09-17T05:18:34.375Z,70.90
2018-09-17T05:22:37.711Z,69.70
2018-09-17T05:26:41.112Z,68.80
2018-09-17T05:30:44.442Z,69.10
2018-09-17T05:34:47.813Z,72.70
2018-09-17T05:38:51.169Z,70.70
2018-09-17T05:42:54.542Z,69.70
2018-09-17T05:46:57.879Z,69.90
2018-09-17T05:51:01.250Z,71.10
2018-09-17T05:55:05.500Z,70.00
2018-09-17T05:59:08.869Z,69.50
2018-09-17T06:03:12.220Z,68.20
2018-09-17T06:07:15.564Z,68.50
2018-09-17T06:11:18.978Z,69.00
2018-09-17T06:15:22.291Z,68.80
2018-09-17T06:19:25.719Z,68.40
2018-09-17T06:23:29.060Z,68.10
2018-09-17T06:27:32.391Z,71.60
2018-09-17T06:31:35.735Z,70.40
2018-09-17T06:35:39.059Z,67.90
2018-09-17T06:39:42.511Z,70.10
2018-09-17T06:43:45.837Z,70.00
2018-09-17T06:47:49.145Z,68.50
2018-09-17T06:51:52.853Z,69.50
2018-09-17T06:55:56.206Z,69.80
2018-09-17T06:59:59.534Z,69.40
2018-09-17T07:04:02.857Z,69.30
2018-09-17T07:08:06.194Z,69.50
2018-09-17T07:12:09.571Z,69.30
2018-09-17T07:16:12.898Z,68.60
2018-09-17T07:20:16.226Z,69.50
2018-09-17T07:24:19.571Z,68.50
2018-09-17T07:28:23.174Z,69.60
2018-09-17T07:32:26.534Z,70.60
2018-09-17T07:36:30.149Z,70.20
2018-09-17T07:40:33.478Z,71.90
2018-09-17T07:44:36.842Z,68.70
2018-09-17T07:48:40.170Z,68.60
2018-09-17T07:52:43.505Z,68.90
2018-09-17T07:56:46.845Z,70.00
2018-09-17T08:00:50.188Z,70.20
2018-09-17T08:04:53.519Z,69.50
2018-09-17T08:08:56.900Z,68.20
2018-09-17T08:13:00.287Z,68.20
2018-09-17T08:17:03.748Z,67.80
2018-09-17T08:21:07.148Z,67.70
2018-09-17T08:25:10.861Z,67.70
2018-09-17T08:29:14.194Z,67.40
2018-09-17T08:33:17.660Z,66.70
2018-09-17T08:37:21.014Z,67.00
2018-09-17T08:41:24.415Z,67.20
2018-09-17T08:45:27.825Z,66.50
2018-09-17T08:49:31.117Z,67.10
2018-09-17T08:53:34.455Z,67.00
2018-09-17T08:57:45.256Z,66.90
2018-09-17T09:01:54.072Z,66.70
2018-09-17T09:06:02.863Z,62.70
2018-09-17T09:10:11.722Z,66.20
2018-09-17T09:18:23.527Z,65.20
2018-09-17T09:22:26.854Z,65.80
2018-09-17T09:26:30.175Z,64.70
2018-09-17T09:30:33.486Z,65.70
2018-09-17T09:34:36.811Z,65.60
2018-09-17T09:38:40.168Z,63.60
2018-09-17T09:42:44.338Z,64.20
2018-09-17T09:46:47.691Z,58.00
2018-09-17T09:50:51.128Z,62.80
2018-09-17T09:54:54.474Z,62.30
2018-09-17T09:58:57.812Z,59.10
2018-09-17T10:03:01.714Z,58.10
2018-09-17T10:07:05.116Z,59.90
2018-09-17T10:11:13.895Z,62.70
2018-09-17T10:15:21.474Z,58.20
2018-09-17T10:19:25.584Z,60.90
2018-09-17T10:23:28.912Z,59.30
2018-09-17T10:27:32.251Z,58.90
2018-09-17T10:31:35.583Z,61.50
2018-09-17T10:35:38.907Z,58.90
2018-09-17T10:39:42.410Z,60.60
2018-09-17T10:43:45.765Z,60.90
2018-09-17T10:47:49.100Z,59.40
2018-09-17T10:51:52.463Z,59.20
2018-09-17T10:55:55.793Z,55.40
2018-09-17T10:59:59.106Z,58.50
2018-09-17T11:04:02.460Z,58.80
2018-09-17T11:08:05.831Z,58.80
2018-09-17T11:12:09.164Z,59.40
2018-09-17T11:16:12.503Z,59.00
2018-09-17T11:20:15.837Z,60.60
2018-09-17T11:28:22.264Z,53.80
2018-09-17T11:32:25.680Z,59.70
2018-09-17T11:36:29.015Z,59.80
2018-09-17T11:40:32.434Z,56.70
2018-09-17T11:44:35.782Z,54.80
2018-09-17T11:48:39.093Z,59.60
2018-09-17T11:52:42.415Z,59.00
2018-09-17T11:56:45.792Z,56.80
2018-09-17T12:00:54.562Z,58.20
2018-09-17T12:05:03.109Z,51.40
2018-09-17T12:09:08.400Z,57.70
2018-09-17T12:13:11.767Z,57.00
2018-09-17T12:17:15.122Z,55.20
2018-09-17T12:21:18.498Z,55.10
2018-09-17T12:25:21.820Z,54.40
2018-09-17T12:29:25.150Z,54.30
2018-09-17T12:33:28.525Z,56.90
2018-09-17T12:37:31.846Z,53.10
2018-09-17T12:41:35.230Z,55.30
2018-09-17T12:45:38.586Z,55.90
2018-09-17T12:49:41.922Z,54.60
2018-09-17T12:53:45.269Z,53.40
2018-09-17T12:57:48.612Z,56.80
2018-09-17T13:01:51.949Z,55.90
2018-09-17T13:05:55.299Z,52.50
2018-09-17T13:09:58.656Z,51.90
2018-09-17T13:14:01.992Z,47.40
2018-09-17T13:18:05.461Z,53.80
2018-09-17T13:22:08.807Z,52.30
2018-09-17T13:26:12.140Z,52.20
2018-09-17T13:30:15.579Z,52.50
2018-09-17T13:34:18.919Z,54.50
2018-09-17T13:38:22.256Z,53.50
2018-09-17T13:42:25.630Z,53.70
2018-09-17T13:46:28.981Z,53.30
2018-09-17T13:50:32.339Z,51.30
2018-09-17T13:54:35.701Z,54.10
2018-09-17T13:58:39.036Z,55.70
2018-09-17T14:02:42.393Z,52.10
2018-09-17T14:06:45.751Z,52.70
2018-09-17T14:10:49.364Z,47.30
2018-09-17T14:14:52.735Z,55.30
2018-09-17T14:18:56.096Z,52.50
2018-09-17T14:22:59.498Z,53.10
2018-09-17T14:27:02.975Z,51.80
2018-09-17T14:31:06.492Z,54.70
2018-09-17T14:35:10.041Z,55.50
2018-09-17T14:39:13.350Z,53.70
2018-09-17T14:43:16.717Z,54.40
2018-09-17T14:47:20.084Z,53.60
2018-09-17T14:51:23.450Z,49.40
2018-09-17T14:55:26.890Z,92.00
2018-09-17T14:59:30.226Z,90.20
2018-09-17T15:03:33.602Z,85.80
2018-09-17T15:07:37.052Z,74.90
2018-09-17T15:15:45.768Z,56.50
2018-09-17T15:19:49.211Z,55.00
2018-09-17T15:23:52.626Z,55.00
2018-09-17T15:27:55.994Z,56.20
2018-09-17T15:31:59.335Z,54.90
2018-09-17T15:36:02.873Z,50.90
2018-09-17T15:40:07.255Z,53.30
2018-09-17T15:44:11.151Z,50.70
2018-09-17T15:48:14.439Z,53.00
2018-09-17T15:52:17.914Z,50.00
2018-09-17T15:56:21.267Z,52.20
2018-09-17T16:00:24.652Z,51.90
2018-09-17T16:04:28.007Z,47.90
2018-09-17T16:08:31.480Z,51.90
2018-09-17T16:12:34.850Z,50.40
2018-09-17T16:16:38.163Z,51.40
2018-09-17T16:20:41.533Z,52.20
2018-09-17T16:24:44.975Z,54.00
2018-09-17T16:28:48.386Z,48.80
2018-09-17T16:32:51.715Z,50.30
2018-09-17T16:36:55.036Z,49.50
2018-09-17T16:40:58.378Z,53.10
2018-09-17T16:45:01.744Z,52.20
2018-09-17T16:49:05.125Z,50.90
2018-09-17T16:53:08.478Z,51.80
2018-09-17T16:57:11.797Z,50.90
2018-09-17T17:01:15.139Z,83.00
2018-09-17T17:05:18.644Z,51.70
2018-09-17T17:09:21.943Z,52.60
2018-09-17T17:13:25.292Z,52.10
2018-09-17T17:17:28.602Z,51.20
2018-09-17T17:21:31.939Z,51.10
2018-09-17T17:25:41.874Z,50.90
2018-09-17T17:29:45.195Z,52.90
2018-09-17T17:33:48.603Z,52.00
2018-09-17T17:37:51.875Z,52.20
2018-09-17T17:41:55.269Z,52.80
2018-09-17T17:45:58.720Z,52.30
2018-09-17T17:50:02.129Z,52.50
2018-09-17T17:54:05.537Z,52.40
2018-09-17T17:58:11.884Z,52.70
2018-09-17T18:02:15.308Z,53.20
2018-09-17T18:06:18.692Z,53.20
2018-09-17T18:10:22.120Z,53.50
2018-09-17T18:14:25.480Z,53.40
2018-09-17T18:18:28.892Z,54.00
2018-09-17T18:22:32.328Z,55.00
2018-09-17T18:26:35.748Z,55.10
2018-09-17T18:30:39.173Z,55.80
2018-09-17T18:34:44.203Z,55.80
2018-09-17T18:38:47.657Z,55.80
2018-09-17T18:42:51.097Z,56.40
2018-09-17T18:46:54.737Z,56.80
2018-09-17T18:50:58.255Z,56.60
2018-09-17T18:55:01.680Z,56.90
2018-09-17T18:59:05.134Z,58.20
2018-09-17T19:03:08.638Z,57.60
2018-09-17T19:07:12.024Z,57.90
2018-09-17T19:11:15.459Z,57.60
2018-09-17T19:15:24.265Z,58.00
2018-09-17T19:19:27.721Z,57.80
2018-09-17T19:23:36.505Z,58.20
2018-09-17T19:27:45.166Z,58.00
2018-09-17T19:31:48.906Z,58.50
2018-09-17T19:35:52.309Z,59.00
2018-09-17T19:40:16.933Z,58.30
2018-09-17T19:44:20.266Z,59.00
2018-09-17T19:48:24.310Z,58.70
2018-09-17T19:52:27.810Z,59.80
2018-09-17T19:56:31.317Z,59.00
2018-09-17T20:00:34.791Z,60.60
2018-09-17T20:04:43.470Z,59.60
2018-09-17T20:08:46.847Z,59.00
2018-09-17T20:12:50.222Z,60.00
2018-09-17T20:16:53.567Z,59.20
2018-09-17T20:20:56.987Z,58.80
2018-09-17T20:25:07.812Z,59.90
2018-09-17T20:29:11.187Z,58.90
2018-09-17T20:33:14.565Z,59.10
2018-09-17T20:37:17.963Z,59.70
2018-09-17T20:41:21.379Z,59.40
2018-09-17T20:45:24.751Z,59.30
2018-09-17T20:49:28.122Z,59.20
2018-09-17T20:53:31.483Z,59.10
2018-09-17T20:57:35.000Z,59.90
2018-09-17T21:01:38.386Z,59.60
2018-09-17T21:05:41.759Z,59.80
2018-09-17T21:09:45.107Z,60.10
2018-09-17T21:13:48.468Z,60.20
2018-09-17T21:17:51.839Z,59.80
2018-09-17T21:21:55.344Z,59.90
2018-09-17T21:25:58.976Z,59.90
2018-09-17T21:30:02.451Z,59.60
2018-09-17T21:34:06.091Z,59.70
2018-09-17T21:38:09.492Z,60.00
2018-09-17T21:42:12.902Z,60.40
2018-09-17T21:46:16.587Z,60.30
2018-09-17T21:50:22.907Z,59.90
2018-09-17T21:54:26.232Z,60.40
2018-09-17T21:58:29.560Z,60.90
2018-09-17T22:02:32.970Z,61.30
2018-09-17T22:06:36.484Z,61.40
2018-09-17T22:10:39.955Z,63.10
2018-09-17T22:14:43.300Z,62.80
2018-09-17T22:18:46.687Z,64.10
2018-09-17T22:22:50.057Z,64.40
2018-09-17T22:26:53.364Z,64.90
2018-09-17T22:30:56.673Z,64.40
2018-09-17T22:35:00.016Z,65.30
2018-09-17T22:39:04.631Z,66.20
2018-09-17T22:43:07.963Z,61.70
2018-09-17T22:47:11.316Z,60.90
2018-09-17T22:51:14.694Z,62.40
2018-09-17T22:55:18.010Z,61.80
2018-09-17T22:59:21.392Z,63.20
2018-09-17T23:03:24.711Z,62.60
2018-09-17T23:07:28.039Z,63.90
2018-09-17T23:11:31.390Z,62.50
2018-09-17T23:15:34.747Z,61.40
2018-09-17T23:19:38.071Z,61.10
2018-09-17T23:23:41.441Z,61.40
2018-09-17T23:27:44.750Z,62.50
2018-09-17T23:31:48.107Z,62.80
2018-09-17T23:35:51.436Z,63.40
2018-09-17T23:39:54.759Z,63.00
2018-09-17T23:43:58.091Z,63.20
2018-09-17T23:48:01.449Z,62.90
2018-09-17T23:52:04.792Z,63.30
2018-09-17T23:56:08.147Z,62.60
